createdAt,value
2019-03-17T00:03:13.640Z,44.10
2019-03-17T00:07:18.438Z,44.20
2019-03-17T00:11:23.560Z,45.10
2019-03-17T00:15:28.376Z,45.00
2019-03-17T00:19:33.105Z,45.00
2019-03-17T00:23:38.069Z,45.80
2019-03-17T00:27:42.784Z,46.00
2019-03-17T00:31:48.236Z,46.20
2019-03-17T00:35:53.050Z,45.90
2019-03-17T00:39:57.881Z,45.30
2019-03-17T00:44:02.976Z,45.90
2019-03-17T00:48:07.845Z,45.90
2019-03-17T00:52:12.912Z,45.60
2019-03-17T00:56:17.780Z,46.00
2019-03-17T01:00:22.595Z,45.80
2019-03-17T01:04:27.698Z,45.70
2019-03-17T01:08:32.524Z,45.70
2019-03-17T01:12:37.388Z,45.60
2019-03-17T01:16:42.201Z,44.90
2019-03-17T01:20:46.939Z,44.70
2019-03-17T01:24:52.810Z,44.10
2019-03-17T01:28:57.737Z,44.20
2019-03-17T01:33:02.817Z,43.90
2019-03-17T01:37:07.634Z,44.10
2019-03-17T01:41:12.570Z,43.90
2019-03-17T01:45:17.417Z,44.00
2019-03-17T01:49:22.240Z,43.70
2019-03-17T01:53:27.261Z,43.60
2019-03-17T01:57:32.067Z,43.90
2019-03-17T02:01:36.917Z,43.10
2019-03-17T02:05:41.734Z,42.80
2019-03-17T02:09:46.544Z,42.70
2019-03-17T02:13:51.555Z,43.20
2019-03-17T02:17:56.367Z,43.50
2019-03-17T02:22:01.201Z,44.60
2019-03-17T02:26:06.172Z,44.50
2019-03-17T02:30:11.572Z,44.80
2019-03-17T02:34:16.660Z,44.80
2019-03-17T02:38:21.420Z,44.80
2019-03-17T02:42:26.409Z,44.90
2019-03-17T02:46:31.156Z,44.80
2019-03-17T02:50:35.966Z,44.80
2019-03-17T02:54:40.836Z,44.60
2019-03-17T02:58:45.630Z,44.50
2019-03-17T03:02:50.430Z,44.00
2019-03-17T03:06:55.191Z,44.00
2019-03-17T03:11:02.373Z,44.30
2019-03-17T03:15:07.264Z,43.40
2019-03-17T03:19:11.977Z,43.60
2019-03-17T03:23:16.908Z,43.20
2019-03-17T03:27:21.704Z,43.00
2019-03-17T03:31:26.599Z,43.40
2019-03-17T03:35:31.400Z,43.40
2019-03-17T03:39:36.201Z,43.30
2019-03-17T03:43:41.122Z,43.40
2019-03-17T03:47:45.942Z,43.80
2019-03-17T03:51:51.101Z,44.30
2019-03-17T03:55:55.911Z,44.50
2019-03-17T04:00:00.798Z,44.20
2019-03-17T04:04:05.671Z,44.10
2019-03-17T04:08:10.482Z,44.10
2019-03-17T04:12:15.592Z,44.30
2019-03-17T04:16:20.377Z,44.10
2019-03-17T04:20:25.184Z,43.70
2019-03-17T04:24:30.361Z,43.50
2019-03-17T04:28:35.096Z,43.50
2019-03-17T04:32:40.140Z,43.10
2019-03-17T04:36:44.871Z,43.10
2019-03-17T04:40:49.681Z,43.60
2019-03-17T04:44:54.475Z,43.50
2019-03-17T04:48:59.787Z,43.50
2019-03-17T04:53:05.275Z,43.10
2019-03-17T04:57:10.149Z,43.00
2019-03-17T05:01:15.104Z,42.50
2019-03-17T05:05:19.910Z,42.80
2019-03-17T05:09:24.627Z,41.00
2019-03-17T05:13:29.717Z,40.50
2019-03-17T05:17:34.603Z,39.70
2019-03-17T05:21:39.632Z,39.20
2019-03-17T05:25:44.374Z,38.80
2019-03-17T05:29:49.081Z,38.10
2019-03-17T05:33:54.224Z,37.90
2019-03-17T05:37:59.026Z,37.90
2019-03-17T05:42:03.869Z,38.30
2019-03-17T05:46:08.613Z,37.70
2019-03-17T05:50:13.477Z,37.30
2019-03-17T05:54:18.427Z,36.90
2019-03-17T05:58:23.240Z,36.20
2019-03-17T06:02:28.112Z,35.90
2019-03-17T06:06:33.227Z,35.20
2019-03-17T06:10:38.223Z,34.20
2019-03-17T06:14:43.031Z,33.90
2019-03-17T06:18:47.843Z,33.10
2019-03-17T06:22:53.116Z,33.20
2019-03-17T06:26:57.918Z,32.60
2019-03-17T06:31:03.008Z,32.30
2019-03-17T06:35:07.891Z,32.70
2019-03-17T06:39:12.636Z,32.60
2019-03-17T06:43:17.677Z,32.00
2019-03-17T06:47:22.597Z,31.20
2019-03-17T06:51:27.348Z,31.60
2019-03-17T06:55:32.211Z,30.40
2019-03-17T06:59:37.220Z,30.80
2019-03-17T07:03:42.157Z,30.90
2019-03-17T07:07:47.114Z,31.00
2019-03-17T07:11:52.059Z,30.70
2019-03-17T07:15:56.875Z,30.20
2019-03-17T07:20:01.909Z,30.30
2019-03-17T07:24:06.824Z,30.60
2019-03-17T07:28:15.128Z,30.60
2019-03-17T07:32:20.441Z,30.50
2019-03-17T07:36:25.437Z,30.40
2019-03-17T07:40:31.085Z,30.20
2019-03-17T07:44:36.435Z,30.20
2019-03-17T07:48:41.378Z,30.20
2019-03-17T07:52:48.686Z,29.70
2019-03-17T07:56:53.872Z,29.80
2019-03-17T08:01:01.204Z,29.40
2019-03-17T08:05:06.550Z,29.60
2019-03-17T08:09:11.415Z,29.70
2019-03-17T08:13:16.232Z,29.10
2019-03-17T08:17:20.976Z,28.80
2019-03-17T08:21:25.855Z,28.70
2019-03-17T08:25:30.670Z,28.40
2019-03-17T08:29:36.017Z,28.30
2019-03-17T08:33:42.815Z,28.80
2019-03-17T08:37:47.674Z,28.60
2019-03-17T08:41:52.620Z,28.60
2019-03-17T08:45:57.520Z,28.60
2019-03-17T08:50:02.452Z,28.70
2019-03-17T08:54:07.554Z,28.30
2019-03-17T08:58:12.369Z,28.90
2019-03-17T09:02:17.470Z,27.80
2019-03-17T09:06:22.276Z,28.20
2019-03-17T09:10:27.226Z,28.00
2019-03-17T09:14:32.281Z,27.00
2019-03-17T09:18:37.210Z,28.00
2019-03-17T09:22:42.227Z,27.90
2019-03-17T09:26:47.306Z,26.50
2019-03-17T09:30:52.198Z,26.10
2019-03-17T09:34:57.186Z,25.30
2019-03-17T09:39:01.912Z,25.60
2019-03-17T09:43:08.593Z,25.00
2019-03-17T09:47:13.429Z,25.60
2019-03-17T09:51:18.447Z,25.70
2019-03-17T09:55:24.505Z,25.30
2019-03-17T09:59:29.256Z,25.30
2019-03-17T10:03:34.200Z,25.70
2019-03-17T10:07:39.009Z,24.90
2019-03-17T10:11:43.905Z,24.30
2019-03-17T10:15:48.786Z,24.30
2019-03-17T10:19:54.617Z,24.30
2019-03-17T10:24:00.036Z,23.30
2019-03-17T10:28:04.929Z,23.50
2019-03-17T10:32:09.987Z,23.90
2019-03-17T10:36:14.870Z,22.40
2019-03-17T10:40:19.757Z,23.70
2019-03-17T10:44:43.724Z,23.30
2019-03-17T10:48:48.551Z,23.60
2019-03-17T10:52:54.103Z,23.00
2019-03-17T10:56:58.905Z,22.90
2019-03-17T11:01:03.969Z,23.00
2019-03-17T11:05:09.347Z,22.80
2019-03-17T11:09:24.708Z,22.30
2019-03-17T11:13:21.052Z,22.60
2019-03-17T11:17:25.840Z,22.50
2019-03-17T11:21:30.732Z,22.10
2019-03-17T11:25:35.468Z,22.80
2019-03-17T11:29:40.357Z,22.60
2019-03-17T11:33:45.332Z,22.40
2019-03-17T11:37:50.203Z,22.20
2019-03-17T11:41:55.665Z,23.00
2019-03-17T11:46:00.573Z,22.80
2019-03-17T11:50:06.212Z,22.00
2019-03-17T11:54:11.175Z,22.20
2019-03-17T11:58:16.028Z,21.80
2019-03-17T12:02:26.584Z,22.30
2019-03-17T12:06:27.514Z,22.60
2019-03-17T12:10:32.424Z,22.10
2019-03-17T12:14:37.399Z,23.40
2019-03-17T12:18:42.278Z,22.60
2019-03-17T12:22:47.437Z,22.50
2019-03-17T12:26:52.241Z,23.10
2019-03-17T12:30:56.982Z,23.10
2019-03-17T12:35:01.800Z,23.40
2019-03-17T12:39:07.391Z,22.30
2019-03-17T12:43:12.230Z,22.70
2019-03-17T12:47:17.123Z,22.80
2019-03-17T12:51:22.200Z,22.00
2019-03-17T12:55:27.064Z,22.00
2019-03-17T12:59:31.864Z,21.70
2019-03-17T13:03:39.630Z,21.30
2019-03-17T13:07:44.530Z,20.70
2019-03-17T13:11:49.489Z,21.10
2019-03-17T13:15:54.296Z,21.20
2019-03-17T13:19:59.177Z,21.40
2019-03-17T13:24:04.363Z,21.60
2019-03-17T13:28:09.178Z,21.30
2019-03-17T13:32:14.404Z,21.00
2019-03-17T13:36:19.380Z,21.10
2019-03-17T13:40:29.452Z,21.30
2019-03-17T13:44:32.766Z,21.80
2019-03-17T13:48:37.833Z,22.00
2019-03-17T13:52:44.235Z,22.30
2019-03-17T13:56:49.160Z,22.40
2019-03-17T14:00:55.254Z,22.80
2019-03-17T14:05:01.626Z,23.90
2019-03-17T14:09:14.543Z,23.40
2019-03-17T14:13:35.659Z,22.80
2019-03-17T14:17:43.888Z,23.80
2019-03-17T14:21:51.192Z,24.70
2019-03-17T14:25:56.329Z,25.00
2019-03-17T14:30:02.033Z,24.60
2019-03-17T14:34:07.352Z,25.20
2019-03-17T14:38:12.180Z,25.20
2019-03-17T14:42:17.033Z,26.60
2019-03-17T14:46:21.799Z,25.60
2019-03-17T14:50:26.712Z,26.10
2019-03-17T14:54:31.630Z,26.20
2019-03-17T14:58:37.638Z,27.20
2019-03-17T15:02:42.733Z,27.80
2019-03-17T15:06:48.124Z,28.30
2019-03-17T15:11:04.973Z,28.00
2019-03-17T15:14:59.777Z,27.90
2019-03-17T15:19:04.660Z,28.80
2019-03-17T15:23:09.435Z,28.60
2019-03-17T15:27:14.315Z,29.70
2019-03-17T15:31:19.460Z,30.20
2019-03-17T15:35:24.326Z,30.90
2019-03-17T15:39:31.434Z,31.60
2019-03-17T15:43:36.406Z,32.50
2019-03-17T15:47:41.226Z,33.00
2019-03-17T15:51:47.094Z,33.70
2019-03-17T15:55:52.319Z,34.00
2019-03-17T15:59:57.444Z,34.60
2019-03-17T16:04:02.678Z,35.10
2019-03-17T16:08:07.676Z,36.20
2019-03-17T16:12:16.229Z,36.00
2019-03-17T16:16:22.853Z,36.80
2019-03-17T16:20:27.750Z,36.50
2019-03-17T16:24:33.676Z,36.70
2019-03-17T16:28:38.509Z,37.40
2019-03-17T16:32:43.482Z,37.90
2019-03-17T16:36:48.318Z,38.20
2019-03-17T16:40:53.241Z,38.10
2019-03-17T16:44:59.583Z,39.70
2019-03-17T16:49:04.524Z,39.30
2019-03-17T16:53:09.347Z,39.60
2019-03-17T16:57:14.112Z,40.20
2019-03-17T17:01:19.072Z,48.70
2019-03-17T17:05:23.954Z,50.40
2019-03-17T17:09:28.740Z,53.20
2019-03-17T17:13:33.557Z,56.80
2019-03-17T17:17:38.308Z,58.40
2019-03-17T17:21:43.303Z,58.40
2019-03-17T17:25:48.094Z,59.70
2019-03-17T17:29:52.927Z,60.10
2019-03-17T17:33:57.793Z,62.00
2019-03-17T17:38:02.688Z,64.40
2019-03-17T17:42:10.083Z,68.30
2019-03-17T17:46:14.467Z,67.80
2019-03-17T17:50:19.269Z,69.50
2019-03-17T17:54:24.183Z,71.20
2019-03-17T17:58:28.967Z,73.30
2019-03-17T18:02:33.993Z,74.00
2019-03-17T18:06:38.761Z,74.10
2019-03-17T18:10:43.616Z,75.40
2019-03-17T18:14:48.418Z,76.60
2019-03-17T18:18:53.215Z,78.90
2019-03-17T18:22:58.411Z,79.40
2019-03-17T18:27:03.240Z,80.30
2019-03-17T18:31:08.317Z,82.60
2019-03-17T18:35:13.696Z,83.30
2019-03-17T18:39:18.429Z,84.70
2019-03-17T18:43:23.455Z,85.60
2019-03-17T18:47:28.314Z,87.20
2019-03-17T18:51:33.408Z,88.40
2019-03-17T18:55:38.378Z,88.30
2019-03-17T18:59:43.126Z,88.20
2019-03-17T19:03:47.927Z,87.40
2019-03-17T19:07:52.732Z,90.30
2019-03-17T19:11:57.684Z,90.00
2019-03-17T19:16:02.400Z,90.00
2019-03-17T19:20:08.227Z,90.00
2019-03-17T19:24:13.096Z,89.80
2019-03-17T19:28:17.961Z,89.60
2019-03-17T19:32:22.876Z,88.50
2019-03-17T19:36:27.664Z,88.20
2019-03-17T19:40:32.640Z,87.70
2019-03-17T19:44:37.560Z,89.90
2019-03-17T19:48:42.314Z,88.60
2019-03-17T19:52:47.309Z,87.60
2019-03-17T19:56:52.236Z,88.30
2019-03-17T20:00:57.292Z,88.80
2019-03-17T20:05:02.144Z,88.60
2019-03-17T20:09:07.881Z,89.00
2019-03-17T20:13:13.166Z,88.40
2019-03-17T20:17:18.196Z,87.50
2019-03-17T20:21:25.227Z,87.70
2019-03-17T20:25:31.408Z,88.00
2019-03-17T20:29:36.229Z,88.10
2019-03-17T20:33:41.771Z,87.90
2019-03-17T20:37:46.785Z,87.50
2019-03-17T20:41:51.853Z,87.30
2019-03-17T20:45:56.596Z,88.40
2019-03-17T20:50:01.417Z,88.70
2019-03-17T20:54:06.875Z,87.80
2019-03-17T20:58:11.611Z,88.30
2019-03-17T21:02:16.968Z,88.20
2019-03-17T21:06:21.984Z,88.20
2019-03-17T21:10:26.835Z,87.30
2019-03-17T21:14:31.741Z,86.40
2019-03-17T21:18:36.843Z,85.50
2019-03-17T21:22:41.889Z,86.20
2019-03-17T21:26:46.679Z,85.00
2019-03-17T21:30:51.503Z,87.60
2019-03-17T21:34:56.415Z,86.60
2019-03-17T21:39:01.410Z,87.10
2019-03-17T21:43:07.004Z,86.60
2019-03-17T21:47:13.169Z,86.60
2019-03-17T21:51:17.896Z,86.00
2019-03-17T21:55:22.650Z,86.60
2019-03-17T21:59:27.730Z,85.60
2019-03-17T22:03:33.229Z,83.80
2019-03-17T22:07:48.775Z,84.90
2019-03-17T22:11:44.796Z,85.20
2019-03-17T22:15:49.603Z,84.90
2019-03-17T22:19:55.977Z,84.90
2019-03-17T22:24:01.467Z,85.40
2019-03-17T22:28:08.551Z,85.80
2019-03-17T22:32:13.579Z,85.00
2019-03-17T22:36:18.950Z,87.00
2019-03-17T22:40:24.894Z,87.40
2019-03-17T22:44:30.748Z,86.50
2019-03-17T22:48:35.555Z,86.20
2019-03-17T22:52:40.463Z,87.10
2019-03-17T22:56:45.280Z,88.80
2019-03-17T23:00:52.090Z,88.00
2019-03-17T23:04:58.428Z,88.70
2019-03-17T23:09:05.656Z,88.70
2019-03-17T23:13:10.454Z,88.70
2019-03-17T23:17:15.310Z,89.10
2019-03-17T23:21:20.075Z,86.30
2019-03-17T23:25:24.884Z,86.20
2019-03-17T23:29:29.691Z,86.50
2019-03-17T23:33:37.059Z,85.30
2019-03-17T23:37:41.931Z,84.00
2019-03-17T23:41:46.818Z,85.00
2019-03-17T23:45:51.571Z,85.20
2019-03-17T23:49:56.313Z,84.20
2019-03-17T23:54:01.152Z,84.40
2019-03-17T23:58:06.021Z,85.00
